createdAt,value
2023-04-07T00:02:28.649Z,101048.13
2023-04-07T00:04:57.553Z,101056.03
2023-04-07T00:07:26.584Z,101050.13
2023-04-07T00:09:54.225Z,101054.50
2023-04-07T00:12:21.994Z,101048.31
2023-04-07T00:14:49.664Z,101056.03
2023-04-07T00:17:18.522Z,101048.13
2023-04-07T00:19:46.140Z,101053.00
2023-04-07T00:22:14.920Z,101052.00
2023-04-07T00:24:43.888Z,101045.44
2023-04-07T00:27:11.570Z,101042.06
2023-04-07T00:29:40.264Z,101052.50
2023-04-07T00:32:08.075Z,101040.41
2023-04-07T00:34:35.655Z,101045.44
2023-04-07T00:37:03.234Z,101044.56
2023-04-07T00:39:31.336Z,101044.75
2023-04-07T00:42:00.873Z,101041.72
2023-04-07T00:44:28.494Z,101040.41
2023-04-07T00:46:56.176Z,101044.94
2023-04-07T00:49:23.835Z,101048.75
2023-04-07T00:51:51.734Z,101047.63
2023-04-07T00:54:19.740Z,101040.34
2023-04-07T00:56:47.398Z,101049.44
2023-04-07T00:59:16.684Z,101044.41
2023-04-07T01:01:48.392Z,101044.25
2023-04-07T01:04:23.567Z,101040.03
2023-04-07T01:06:54.513Z,101042.38
2023-04-07T01:09:28.520Z,101048.09
2023-04-07T01:12:06.081Z,101036.34
2023-04-07T01:14:41.591Z,101032.59
2023-04-07T01:17:11.456Z,101036.81
2023-04-07T01:19:42.797Z,101033.94
2023-04-07T01:22:13.783Z,101029.91
2023-04-07T01:25:07.447Z,101027.91
2023-04-07T01:27:42.810Z,101034.97
2023-04-07T01:30:14.436Z,101026.22
2023-04-07T01:32:45.448Z,101034.13
2023-04-07T01:35:14.554Z,101028.38
2023-04-07T01:37:45.657Z,101030.06
2023-04-07T01:40:14.027Z,101030.72
2023-04-07T01:42:42.984Z,101025.19
2023-04-07T01:45:12.816Z,101033.06
2023-04-07T01:47:41.722Z,101034.53
2023-04-07T01:50:11.522Z,101032.06
2023-04-07T01:52:40.595Z,101031.00
2023-04-07T01:55:09.736Z,101029.81
2023-04-07T01:57:37.453Z,101027.09
2023-04-07T02:00:06.275Z,101027.09
2023-04-07T02:02:41.782Z,101036.34
2023-04-07T02:05:14.673Z,101030.47
2023-04-07T02:07:48.788Z,101029.97
2023-04-07T02:10:18.407Z,101034.47
2023-04-07T02:12:48.107Z,101028.75
2023-04-07T02:15:17.367Z,101035.63
2023-04-07T02:17:52.721Z,101032.91
2023-04-07T02:20:22.523Z,101029.41
2023-04-07T02:22:50.714Z,101031.06
2023-04-07T02:25:26.408Z,101033.25
2023-04-07T02:27:54.401Z,101036.78
2023-04-07T02:30:22.190Z,101040.16
2023-04-07T02:32:51.696Z,101031.75
2023-04-07T02:35:19.472Z,101035.06
2023-04-07T02:37:47.881Z,101033.09
2023-04-07T02:40:16.245Z,101033.09
2023-04-07T02:42:44.421Z,101036.13
2023-04-07T02:45:12.881Z,101033.84
2023-04-07T02:47:41.056Z,101042.31
2023-04-07T02:50:10.938Z,101041.25
2023-04-07T02:52:38.594Z,101041.13
2023-04-07T02:55:07.242Z,101038.44
2023-04-07T02:57:34.917Z,101038.44
2023-04-07T03:00:02.828Z,101039.72
2023-04-07T03:02:30.926Z,101040.09
2023-04-07T03:04:58.852Z,101032.00
2023-04-07T03:07:27.942Z,101034.31
2023-04-07T03:09:55.633Z,101034.81
2023-04-07T03:12:23.268Z,101036.84
2023-04-07T03:14:50.964Z,101033.50
2023-04-07T03:17:18.837Z,101040.41
2023-04-07T03:19:47.050Z,101040.19
2023-04-07T03:22:14.695Z,101037.72
2023-04-07T03:24:43.748Z,101035.22
2023-04-07T03:27:11.467Z,101044.06
2023-04-07T03:29:39.113Z,101045.16
2023-04-07T03:32:06.779Z,101043.97
2023-04-07T03:34:34.388Z,101041.53
2023-04-07T03:37:02.258Z,101049.19
2023-04-07T03:39:30.013Z,101050.91
2023-04-07T03:41:59.145Z,101039.19
2023-04-07T03:44:26.777Z,101044.78
2023-04-07T03:46:54.351Z,101038.22
2023-04-07T03:49:22.137Z,101040.13
2023-04-07T03:51:49.729Z,101034.88
2023-04-07T03:54:17.426Z,101049.78
2023-04-07T03:56:45.632Z,101049.25
2023-04-07T03:59:14.966Z,101041.41
2023-04-07T04:01:42.679Z,101033.66
2023-04-07T04:04:10.641Z,101047.47
2023-04-07T04:06:38.495Z,101052.09
2023-04-07T04:09:06.057Z,101054.53
2023-04-07T04:11:33.720Z,101058.84
2023-04-07T04:14:01.396Z,101062.72
2023-04-07T04:16:31.623Z,101059.41
2023-04-07T04:18:59.374Z,101059.88
2023-04-07T04:21:27.692Z,101059.81
2023-04-07T04:23:55.450Z,101056.28
2023-04-07T04:26:25.981Z,101057.81
2023-04-07T04:28:54.012Z,101062.56
2023-04-07T04:31:21.691Z,101059.50
2023-04-07T04:33:50.995Z,101075.06
2023-04-07T04:36:18.747Z,101057.97
2023-04-07T04:38:48.913Z,101068.47
2023-04-07T04:41:16.661Z,101074.53
2023-04-07T04:43:45.234Z,101076.69
2023-04-07T04:46:12.860Z,101083.44
2023-04-07T04:48:40.798Z,101085.06
2023-04-07T04:51:09.828Z,101085.72
2023-04-07T04:53:39.620Z,101083.44
2023-04-07T04:56:07.995Z,101086.34
2023-04-07T04:58:36.633Z,101095.47
2023-04-07T05:01:04.441Z,101087.19
2023-04-07T05:03:32.437Z,101089.50
2023-04-07T05:06:02.790Z,101095.56
2023-04-07T05:08:32.290Z,101095.72
2023-04-07T05:11:00.115Z,101094.56
2023-04-07T05:13:30.622Z,101101.69
2023-04-07T05:15:58.231Z,101101.31
2023-04-07T05:18:26.130Z,101095.56
2023-04-07T05:20:53.790Z,101101.91
2023-04-07T05:23:21.451Z,101105.50
2023-04-07T05:25:51.078Z,101109.53
2023-04-07T05:28:19.548Z,101098.41
2023-04-07T05:30:47.205Z,101100.84
2023-04-07T05:33:15.383Z,101103.75
2023-04-07T05:35:47.798Z,101101.84
2023-04-07T05:38:16.719Z,101103.16
2023-04-07T05:40:44.846Z,101102.13
2023-04-07T05:43:13.852Z,101098.78
2023-04-07T05:45:41.593Z,101109.75
2023-04-07T05:48:09.446Z,101108.16
2023-04-07T05:50:37.233Z,101111.06
2023-04-07T05:53:04.910Z,101107.59
2023-04-07T05:55:34.892Z,101104.28
2023-04-07T05:58:02.713Z,101113.44
2023-04-07T06:00:34.204Z,101109.59
2023-04-07T06:03:03.657Z,101117.72
2023-04-07T06:05:31.582Z,101112.19
2023-04-07T06:07:59.360Z,101124.00
2023-04-07T06:10:28.101Z,101120.34
2023-04-07T06:12:56.059Z,101128.06
2023-04-07T06:15:23.849Z,101124.78
2023-04-07T06:17:52.885Z,101132.22
2023-04-07T06:20:21.561Z,101133.53
2023-04-07T06:22:49.289Z,101131.69
2023-04-07T06:25:17.159Z,101132.50
2023-04-07T06:27:44.928Z,101128.44
2023-04-07T06:30:13.250Z,101130.53
2023-04-07T06:32:40.971Z,101124.50
2023-04-07T06:35:13.112Z,101137.13
2023-04-07T06:37:41.418Z,101139.47
2023-04-07T06:40:09.983Z,101141.09
2023-04-07T06:42:37.644Z,101146.88
2023-04-07T06:45:05.928Z,101146.66
2023-04-07T06:47:33.674Z,101149.69
2023-04-07T06:50:01.574Z,101148.88
2023-04-07T06:52:30.577Z,101152.91
2023-04-07T06:54:59.590Z,101153.44
2023-04-07T06:57:27.892Z,101161.69
2023-04-07T06:59:55.590Z,101155.44
2023-04-07T07:02:23.396Z,101155.72
2023-04-07T07:04:51.736Z,101157.34
2023-04-07T07:07:20.631Z,101157.34
2023-04-07T07:09:49.681Z,101151.78
2023-04-07T07:12:17.984Z,101157.25
2023-04-07T07:14:45.792Z,101159.56
2023-04-07T07:17:13.675Z,101162.50
2023-04-07T07:19:41.384Z,101165.03
2023-04-07T07:22:09.132Z,101154.16
2023-04-07T07:24:36.815Z,101159.63
2023-04-07T07:27:05.846Z,101163.03
2023-04-07T07:29:33.474Z,101172.69
2023-04-07T07:32:02.894Z,101168.69
2023-04-07T07:34:30.997Z,101172.09
2023-04-07T07:36:59.793Z,101173.94
2023-04-07T07:39:28.108Z,101169.69
2023-04-07T07:41:56.610Z,101170.03
2023-04-07T07:44:25.842Z,101171.59
2023-04-07T07:46:53.549Z,101176.47
2023-04-07T07:49:21.377Z,101177.16
2023-04-07T07:51:49.646Z,101179.16
2023-04-07T07:54:17.482Z,101174.78
2023-04-07T07:56:45.303Z,101184.69
2023-04-07T07:59:13.022Z,101187.25
2023-04-07T08:01:42.293Z,101179.75
2023-04-07T08:04:10.191Z,101188.84
2023-04-07T08:06:38.022Z,101179.72
2023-04-07T08:09:06.143Z,101184.44
2023-04-07T08:11:33.846Z,101178.31
2023-04-07T08:14:01.889Z,101191.09
2023-04-07T08:16:29.564Z,101191.09
2023-04-07T08:18:58.588Z,101197.88
2023-04-07T08:21:27.292Z,101189.50
2023-04-07T08:23:56.274Z,101190.78
2023-04-07T08:26:24.296Z,101191.25
2023-04-07T08:28:52.492Z,101189.91
2023-04-07T08:31:20.559Z,101195.59
2023-04-07T08:33:48.704Z,101189.84
2023-04-07T08:36:18.228Z,101192.88
2023-04-07T08:38:45.929Z,101201.84
2023-04-07T08:41:15.250Z,101198.09
2023-04-07T08:43:48.082Z,101207.91
2023-04-07T08:46:22.872Z,101207.56
2023-04-07T08:48:53.436Z,101205.31
2023-04-07T08:51:29.287Z,101209.81
2023-04-07T08:54:05.030Z,101208.41
2023-04-07T08:56:34.211Z,101213.88
2023-04-07T08:59:02.692Z,101208.59
2023-04-07T09:01:31.765Z,101209.09
2023-04-07T09:04:00.317Z,101212.28
2023-04-07T09:06:31.984Z,101209.13
2023-04-07T09:08:59.795Z,101207.00
2023-04-07T09:11:28.516Z,101203.09
2023-04-07T09:13:58.948Z,101209.34
2023-04-07T09:16:30.935Z,101205.59
2023-04-07T09:18:58.870Z,101200.09
2023-04-07T09:21:27.058Z,101209.00
2023-04-07T09:23:56.334Z,101203.50
2023-04-07T09:26:25.658Z,101211.03
2023-04-07T09:28:56.216Z,101214.69
2023-04-07T09:31:26.248Z,101198.72
2023-04-07T09:33:54.423Z,101197.91
2023-04-07T09:36:22.239Z,101202.94
2023-04-07T09:38:49.918Z,101209.38
2023-04-07T09:41:18.915Z,101201.53
2023-04-07T09:43:48.333Z,101195.94
2023-04-07T09:46:18.825Z,101198.00
2023-04-07T09:48:49.409Z,101202.34
2023-04-07T09:51:18.249Z,101197.53
2023-04-07T09:53:48.765Z,101204.72
2023-04-07T09:56:20.184Z,101199.69
2023-04-07T09:58:48.969Z,101195.66
2023-04-07T10:01:18.101Z,101195.66
2023-04-07T10:03:47.756Z,101192.31
2023-04-07T10:06:17.423Z,101187.69
2023-04-07T10:08:47.236Z,101204.81
2023-04-07T10:11:16.850Z,101193.19
2023-04-07T10:13:46.662Z,101189.53
2023-04-07T10:16:17.396Z,101189.81
2023-04-07T10:18:46.412Z,101187.91
2023-04-07T10:21:16.604Z,101194.13
2023-04-07T10:23:53.674Z,101197.03
2023-04-07T10:26:26.305Z,101192.13
2023-04-07T10:29:01.264Z,101191.31
2023-04-07T10:31:29.423Z,101194.28
2023-04-07T10:33:57.570Z,101201.19
2023-04-07T10:36:26.123Z,101201.13
2023-04-07T10:39:22.324Z,101190.31
2023-04-07T10:41:51.967Z,101196.19
2023-04-07T10:44:50.488Z,101196.75
2023-04-07T10:47:22.224Z,101197.88
2023-04-07T10:50:23.722Z,101201.41
2023-04-07T10:53:07.200Z,101199.28
2023-04-07T10:55:37.625Z,101203.31
2023-04-07T10:58:16.403Z,101207.53
2023-04-07T11:01:20.919Z,101202.28
2023-04-07T11:03:57.334Z,101203.44
2023-04-07T11:06:26.310Z,101202.84
2023-04-07T11:08:53.969Z,101207.53
2023-04-07T11:11:37.239Z,101204.44
2023-04-07T11:14:05.570Z,101211.63
2023-04-07T11:16:40.381Z,101207.50
2023-04-07T11:19:08.404Z,101198.41
2023-04-07T11:21:36.876Z,101200.44
2023-04-07T11:24:04.949Z,101195.31
2023-04-07T11:26:39.375Z,101201.66
2023-04-07T11:29:08.085Z,101198.03
2023-04-07T11:31:36.110Z,101202.34
2023-04-07T11:34:06.086Z,101198.28
2023-04-07T11:36:35.352Z,101197.25
2023-04-07T11:39:03.929Z,101211.09
2023-04-07T11:41:33.698Z,101206.28
2023-04-07T11:44:06.000Z,101200.94
2023-04-07T11:46:33.867Z,101193.75
2023-04-07T11:49:12.203Z,101199.53
2023-04-07T11:51:40.389Z,101195.28
2023-04-07T11:54:09.061Z,101193.88
2023-04-07T11:56:47.474Z,101195.97
2023-04-07T11:59:23.265Z,101193.94
2023-04-07T12:01:57.994Z,101187.50
2023-04-07T12:04:31.694Z,101196.56
2023-04-07T12:07:11.950Z,101181.25
2023-04-07T12:09:41.019Z,101200.09
2023-04-07T12:12:10.905Z,101198.25
2023-04-07T12:14:39.173Z,101196.94
2023-04-07T12:17:08.064Z,101199.28
2023-04-07T12:19:39.356Z,101194.41
2023-04-07T12:22:07.396Z,101201.78
2023-04-07T12:24:35.006Z,101194.91
2023-04-07T12:27:03.027Z,101200.56
2023-04-07T12:29:30.749Z,101202.88
2023-04-07T12:31:58.479Z,101199.94
2023-04-07T12:34:27.200Z,101204.56
2023-04-07T12:36:56.424Z,101204.75
2023-04-07T12:39:24.797Z,101200.78
2023-04-07T12:41:58.333Z,101208.31
2023-04-07T12:44:26.527Z,101208.50
2023-04-07T12:46:54.525Z,101201.72
2023-04-07T12:49:23.916Z,101198.75
2023-04-07T12:51:54.943Z,101197.69
2023-04-07T12:54:26.298Z,101193.97
2023-04-07T12:56:54.282Z,101196.97
2023-04-07T12:59:25.660Z,101197.31
2023-04-07T13:01:55.883Z,101189.34
2023-04-07T13:04:24.271Z,101187.47
2023-04-07T13:06:52.108Z,101204.59
2023-04-07T13:09:19.985Z,101197.94
2023-04-07T13:11:49.092Z,101203.78
2023-04-07T13:14:16.738Z,101201.31
2023-04-07T13:16:44.716Z,101203.06
2023-04-07T13:19:12.364Z,101190.41
2023-04-07T13:24:10.881Z,101188.59
2023-04-07T13:26:38.589Z,101192.38
2023-04-07T13:29:07.593Z,101186.72
2023-04-07T13:31:35.304Z,101191.31
2023-04-07T13:34:03.000Z,101189.53
2023-04-07T13:36:31.118Z,101190.66
2023-04-07T13:38:59.613Z,101181.69
2023-04-07T13:41:27.536Z,101188.47
2023-04-07T13:43:55.288Z,101176.16
2023-04-07T13:46:28.008Z,101182.47
2023-04-07T13:48:56.656Z,101177.81
2023-04-07T13:51:24.396Z,101193.69
2023-04-07T13:53:52.177Z,101184.75
2023-04-07T13:56:20.042Z,101186.78
2023-04-07T13:58:47.879Z,101185.84
2023-04-07T14:01:16.048Z,101183.94
2023-04-07T14:03:45.158Z,101184.41
2023-04-07T14:06:13.023Z,101180.28
2023-04-07T14:08:40.911Z,101174.81
2023-04-07T14:11:08.547Z,101179.13
2023-04-07T14:13:36.427Z,101179.75
2023-04-07T14:16:04.303Z,101180.16
2023-04-07T14:18:32.327Z,101168.78
2023-04-07T14:21:01.722Z,101179.88
2023-04-07T14:23:36.634Z,101177.19
2023-04-07T14:26:17.008Z,101178.53
2023-04-07T14:28:47.426Z,101177.34
2023-04-07T14:31:16.677Z,101176.09
2023-04-07T14:33:45.461Z,101178.00
2023-04-07T14:36:15.732Z,101186.84
2023-04-07T14:38:44.273Z,101184.97
2023-04-07T14:41:13.136Z,101179.97
2023-04-07T14:43:41.164Z,101186.53
2023-04-07T14:46:09.063Z,101186.53
2023-04-07T14:48:37.162Z,101192.81
2023-04-07T14:51:09.818Z,101190.31
2023-04-07T14:53:39.249Z,101194.50
2023-04-07T14:56:07.642Z,101191.13
2023-04-07T14:58:37.514Z,101192.59
2023-04-07T15:01:08.072Z,101194.03
2023-04-07T15:03:36.804Z,101196.53
2023-04-07T15:06:08.346Z,101201.34
2023-04-07T15:08:36.063Z,101192.75
2023-04-07T15:11:06.512Z,101199.03
2023-04-07T15:13:34.546Z,101205.28
2023-04-07T15:16:10.390Z,101202.16
2023-04-07T15:18:40.842Z,101197.13
2023-04-07T15:21:09.287Z,101206.97
2023-04-07T15:23:38.653Z,101203.44
2023-04-07T15:26:08.251Z,101204.88
2023-04-07T15:28:36.016Z,101203.22
2023-04-07T15:31:08.183Z,101201.50
2023-04-07T15:33:36.730Z,101212.09
2023-04-07T15:36:04.824Z,101199.72
2023-04-07T15:38:32.611Z,101212.09
2023-04-07T15:41:00.676Z,101210.81
2023-04-07T15:43:30.178Z,101220.59
2023-04-07T15:45:58.815Z,101215.78
2023-04-07T15:48:26.485Z,101210.94
2023-04-07T15:50:54.463Z,101207.84
2023-04-07T15:53:22.454Z,101211.81
2023-04-07T15:55:50.415Z,101212.03
2023-04-07T15:58:18.498Z,101217.03
2023-04-07T16:00:48.037Z,101223.09
2023-04-07T16:03:15.909Z,101223.50
2023-04-07T16:05:43.895Z,101225.94
2023-04-07T16:08:13.578Z,101220.47
2023-04-07T16:10:41.699Z,101232.59
2023-04-07T16:13:10.555Z,101226.31
2023-04-07T16:15:41.191Z,101237.50
2023-04-07T16:18:12.470Z,101231.25
2023-04-07T16:20:40.554Z,101236.00
2023-04-07T16:23:08.498Z,101247.50
2023-04-07T16:25:36.321Z,101242.53
2023-04-07T16:28:04.144Z,101239.41
2023-04-07T16:30:32.440Z,101235.66
2023-04-07T16:33:01.503Z,101248.59
2023-04-07T16:35:31.849Z,101244.44
2023-04-07T16:38:03.865Z,101248.34
2023-04-07T16:40:31.765Z,101252.91
2023-04-07T16:42:59.420Z,101247.06
2023-04-07T16:45:27.383Z,101251.88
2023-04-07T16:47:55.185Z,101259.56
2023-04-07T16:50:23.016Z,101262.06
2023-04-07T16:52:52.072Z,101267.50
2023-04-07T16:55:19.920Z,101269.19
2023-04-07T16:57:48.217Z,101271.25
2023-04-07T17:00:16.495Z,101270.84
2023-04-07T17:02:44.294Z,101269.97
2023-04-07T17:05:12.016Z,101281.63
2023-04-07T17:07:39.655Z,101285.31
2023-04-07T17:10:09.897Z,101289.13
2023-04-07T17:12:38.894Z,101294.50
2023-04-07T17:15:07.393Z,101296.50
2023-04-07T17:17:35.305Z,101294.44
2023-04-07T17:20:04.670Z,101299.41
2023-04-07T17:22:33.871Z,101304.03
2023-04-07T17:25:01.839Z,101306.06
2023-04-07T17:27:30.860Z,101309.44
2023-04-07T17:29:59.096Z,101318.94
2023-04-07T17:32:27.219Z,101319.13
2023-04-07T17:34:55.005Z,101321.19
2023-04-07T17:37:22.676Z,101327.66
2023-04-07T17:39:50.482Z,101327.13
2023-04-07T17:42:18.115Z,101334.25
2023-04-07T17:44:47.290Z,101348.94
2023-04-07T17:47:14.978Z,101343.63
2023-04-07T17:49:42.902Z,101351.47
2023-04-07T17:52:11.154Z,101353.91
2023-04-07T17:54:38.981Z,101366.28
2023-04-07T17:57:07.223Z,101366.81
2023-04-07T17:59:34.908Z,101371.63
2023-04-07T18:02:09.072Z,101375.34
2023-04-07T18:04:37.638Z,101384.59
2023-04-07T18:07:05.573Z,101377.69
2023-04-07T18:09:37.803Z,101394.81
2023-04-07T18:12:06.209Z,101395.84
2023-04-07T18:14:34.007Z,101396.69
2023-04-07T18:17:01.642Z,101399.69
2023-04-07T18:19:30.868Z,101404.34
2023-04-07T18:21:59.968Z,101409.38
2023-04-07T18:24:27.665Z,101413.38
2023-04-07T18:26:55.362Z,101409.03
2023-04-07T18:29:23.196Z,101424.03
2023-04-07T18:31:51.160Z,101421.81
2023-04-07T18:34:18.870Z,101426.41
2023-04-07T18:36:51.286Z,101434.72
2023-04-07T18:39:19.040Z,101431.53
2023-04-07T18:41:48.242Z,101430.72
2023-04-07T18:44:16.074Z,101430.81
2023-04-07T18:46:43.748Z,101445.38
2023-04-07T18:49:11.495Z,101448.19
2023-04-07T18:51:39.558Z,101450.09
2023-04-07T18:54:08.676Z,101454.94
2023-04-07T18:56:38.267Z,101457.34
2023-04-07T18:59:07.260Z,101460.94
2023-04-07T19:01:35.581Z,101461.47
2023-04-07T19:04:03.439Z,101469.41
2023-04-07T19:06:31.894Z,101475.41
2023-04-07T19:08:59.958Z,101482.97
2023-04-07T19:11:29.022Z,101478.41
2023-04-07T19:13:56.791Z,101477.34
2023-04-07T19:16:24.710Z,101481.72
2023-04-07T19:18:53.213Z,101481.97
2023-04-07T19:21:21.340Z,101492.94
2023-04-07T19:23:49.282Z,101496.19
2023-04-07T19:26:17.254Z,101493.41
2023-04-07T19:28:46.320Z,101500.03
2023-04-07T19:31:13.988Z,101510.13
2023-04-07T19:33:41.861Z,101508.78
2023-04-07T19:36:09.679Z,101508.78
2023-04-07T19:38:37.522Z,101508.72
2023-04-07T19:41:05.308Z,101518.53
2023-04-07T19:43:35.518Z,101516.47
2023-04-07T19:46:05.035Z,101513.44
2023-04-07T19:48:32.752Z,101514.00
2023-04-07T19:51:00.642Z,101517.72
2023-04-07T19:53:29.334Z,101515.53
2023-04-07T19:55:57.034Z,101522.44
2023-04-07T19:58:24.951Z,101520.44
2023-04-07T20:00:54.138Z,101531.25
2023-04-07T20:03:23.474Z,101531.75
2023-04-07T20:05:52.715Z,101538.03
2023-04-07T20:08:20.588Z,101539.41
2023-04-07T20:10:48.447Z,101536.53
2023-04-07T20:13:16.100Z,101546.69
2023-04-07T20:15:44.025Z,101548.22
2023-04-07T20:18:12.230Z,101542.97
2023-04-07T20:20:41.434Z,101537.09
2023-04-07T20:23:09.634Z,101541.31
2023-04-07T20:25:37.649Z,101533.19
2023-04-07T20:28:05.354Z,101542.53
2023-04-07T20:30:34.415Z,101549.28
2023-04-07T20:33:02.155Z,101547.59
2023-04-07T20:35:29.931Z,101551.34
2023-04-07T20:38:00.136Z,101557.09
2023-04-07T20:40:28.114Z,101558.09
2023-04-07T20:42:56.130Z,101565.88
2023-04-07T20:45:24.327Z,101563.19
2023-04-07T20:47:51.998Z,101570.78
2023-04-07T20:50:19.632Z,101569.09
2023-04-07T20:52:47.278Z,101567.75
2023-04-07T20:55:16.782Z,101567.94
2023-04-07T20:57:44.454Z,101574.00
2023-04-07T21:00:12.990Z,101571.97
2023-04-07T21:02:40.784Z,101573.50
2023-04-07T21:05:09.180Z,101582.94
2023-04-07T21:07:37.140Z,101577.72
2023-04-07T21:10:05.562Z,101581.25
2023-04-07T21:12:34.584Z,101581.59
2023-04-07T21:15:02.453Z,101592.88
2023-04-07T21:17:30.195Z,101594.06
2023-04-07T21:19:57.807Z,101600.00
2023-04-07T21:22:25.626Z,101599.47
2023-04-07T21:24:55.069Z,101594.59
2023-04-07T21:27:23.786Z,101589.88
2023-04-07T21:29:54.047Z,101594.09
2023-04-07T21:32:22.031Z,101595.59
2023-04-07T21:34:52.795Z,101598.28
2023-04-07T21:37:20.411Z,101601.69
2023-04-07T21:39:50.146Z,101602.69
2023-04-07T21:42:17.778Z,101606.09
2023-04-07T21:44:45.429Z,101605.22
2023-04-07T21:47:14.806Z,101606.88
2023-04-07T21:49:42.417Z,101605.56
2023-04-07T21:52:10.020Z,101606.72
2023-04-07T21:54:38.876Z,101612.97
2023-04-07T21:57:06.592Z,101611.25
2023-04-07T21:59:35.429Z,101609.91
2023-04-07T22:02:03.600Z,101612.25
2023-04-07T22:04:32.996Z,101611.06
2023-04-07T22:07:00.759Z,101609.72
2023-04-07T22:09:28.531Z,101613.94
2023-04-07T22:11:56.117Z,101622.34
2023-04-07T22:14:24.922Z,101615.59
2023-04-07T22:16:53.476Z,101618.66
2023-04-07T22:19:21.503Z,101617.97
2023-04-07T22:21:52.724Z,101615.63
2023-04-07T22:24:20.334Z,101620.53
2023-04-07T22:26:47.889Z,101618.19
2023-04-07T22:29:15.584Z,101618.38
2023-04-07T22:31:43.476Z,101619.72
2023-04-07T22:34:11.286Z,101623.97
2023-04-07T22:36:38.824Z,101623.84
2023-04-07T22:39:08.330Z,101623.72
2023-04-07T22:41:35.901Z,101631.44
2023-04-07T22:44:03.577Z,101628.34
2023-04-07T22:46:31.583Z,101632.81
2023-04-07T22:48:59.329Z,101625.09
2023-04-07T22:51:29.257Z,101626.47
2023-04-07T22:53:57.325Z,101634.03
2023-04-07T22:56:27.151Z,101629.28
2023-04-07T22:58:54.845Z,101629.63
2023-04-07T23:01:22.431Z,101631.34
2023-04-07T23:03:50.097Z,101628.28
2023-04-07T23:06:17.870Z,101646.50
2023-04-07T23:08:45.851Z,101636.91
2023-04-07T23:11:13.410Z,101633.03
2023-04-07T23:13:42.354Z,101636.41
2023-04-07T23:16:12.865Z,101644.38
2023-04-07T23:18:41.070Z,101641.75
2023-04-07T23:21:08.872Z,101639.03
2023-04-07T23:23:36.803Z,101643.34
2023-04-07T23:26:04.470Z,101639.81
2023-04-07T23:28:32.128Z,101643.34
2023-04-07T23:31:01.966Z,101641.59
2023-04-07T23:33:31.580Z,101639.94
2023-04-07T23:35:59.845Z,101644.34
2023-04-07T23:38:27.760Z,101635.59
2023-04-07T23:40:55.898Z,101640.44
2023-04-07T23:43:23.483Z,101642.53
2023-04-07T23:45:51.387Z,101650.16
2023-04-07T23:48:20.521Z,101646.84
2023-04-07T23:50:49.694Z,101643.97
2023-04-07T23:53:17.336Z,101645.72
2023-04-07T23:55:45.258Z,101653.78
2023-04-07T23:58:12.868Z,101639.53
